RJBE

Details ICAO RJBE (UKB)
Name Kobe
Region Japan
Timezone Asia/Tokyo (UTC+9.0)
Plans Departing 44
Arriving 24
Stats Elevation 22 ft / 7 m (AMSL)
Location 34.632700° 135.223883°
Runways 1
Magnetic Variation 7.645° W
Sunrise 2017-12-14 21:59:57 UTC / 2017-12-15 06:59:57 Local
Sunset 2017-12-15 07:51:01 UTC / 2017-12-15 16:51:01 Local
Advertisement - Login to hide

Runways

ID Width Length Bearing (true) Bearing (mag) Surface Threshold Offset Overrun Length
09 200 ft / 61 m 8,187 ft / 2,495 m 84.58° 92.22° Asphalt 0 ft / 0 m 0 ft / 0 m
27 200 ft / 61 m 8,187 ft / 2,495 m 264.60° 272.24° Asphalt 0 ft / 0 m 0 ft / 0 m

Approach Navaids

Runway Type Ident Frequency Range Bearing (true) Bearing (mag) Slope Elevation
09 Localiser IKO 109.15 MHz 18 nm / 33 km 84.59° 92.24° - 22 ft / 7 m (AMSL)
09 Glidescope IKO 109.15 MHz 10 nm / 19 km 84.59° 92.23° 3.00° 22 ft / 7 m (AMSL)
09 DME IKO 109.15 MHz 18 nm / 33 km - - - 39 ft / 12 m (AMSL)

Map

Weather


0- 5 10 15 20 25 30 35+ Temperature / ° C

Clouds and Precipitation
Forecast for 2017-12-15 06:00 UTC. Updated 2 hours ago

Ground ~20,000 ft ~40,000 ft Winds

METAR

RJBE 150400Z 13004KT 090V150 9999 FEW030 SCT/// 09/00 Q1022

TAF

Not found

Frequencies

Recorded 128.07 MHz ATIS
Approach 125.30 MHz KANSAI TCA
Tower 126.20 MHz TWR
Warning: Do not use this data for real-world aviation or navigation. No guarantee of current accuracy is given.